createdAt,value
2018-10-12T04:19:59.025Z,9.43
2018-10-12T04:22:29.481Z,8.77
2018-10-12T04:25:00.529Z,7.80
2018-10-12T04:27:32.435Z,9.87
2018-10-12T04:30:03.454Z,8.60
2018-10-12T04:32:33.945Z,9.57
2018-10-12T04:35:04.359Z,8.27
2018-10-12T04:37:36.488Z,10.37
2018-10-12T04:41:28.661Z,8.17
2018-10-12T04:44:00.601Z,8.40
2018-10-12T04:46:41.413Z,8.27
2018-10-12T04:49:15.107Z,10.07
2018-10-12T04:51:54.622Z,9.20
2018-10-12T04:54:25.465Z,8.73
2018-10-12T04:56:56.187Z,9.93
2018-10-12T04:59:26.831Z,9.90
2018-10-12T05:01:57.498Z,8.93
2018-10-12T05:04:28.013Z,8.20
2018-10-12T05:06:58.753Z,8.97
2018-10-12T05:09:29.439Z,9.53
2018-10-12T05:12:00.271Z,9.80
2018-10-12T05:14:30.868Z,8.00
2018-10-12T05:17:01.670Z,8.33
2018-10-12T05:19:32.309Z,9.00
2018-10-12T05:22:02.969Z,9.90
2018-10-12T05:24:33.518Z,9.37
2018-10-12T05:27:04.109Z,8.20
2018-10-12T05:29:34.740Z,8.80
2018-10-12T05:32:05.338Z,7.77
2018-10-12T05:34:35.904Z,9.07
2018-10-12T05:37:06.620Z,9.50
2018-10-12T05:39:37.188Z,8.60
2018-10-12T05:42:08.112Z,8.37
2018-10-12T05:44:38.685Z,6.83
2018-10-12T05:47:09.229Z,11.27
2018-10-12T05:49:57.193Z,8.17
2018-10-12T05:52:28.197Z,10.23
2018-10-12T05:55:00.049Z,8.13
2018-10-12T05:57:32.108Z,6.90
2018-10-12T06:00:02.749Z,10.33
2018-10-12T06:02:33.349Z,6.90
2018-10-12T06:05:04.113Z,9.67
2018-10-12T06:07:35.148Z,11.13
2018-10-12T06:10:06.065Z,10.83
2018-10-12T06:12:36.672Z,9.13
2018-10-12T06:15:07.269Z,9.70
2018-10-12T06:17:37.925Z,7.50
2018-10-12T06:20:08.699Z,11.07
2018-10-12T06:22:39.266Z,8.47
2018-10-12T06:25:09.777Z,8.30
2018-10-12T06:27:40.331Z,6.63
2018-10-12T06:30:11.120Z,8.63
2018-10-12T06:32:41.682Z,6.67
2018-10-12T06:35:12.291Z,7.30
2018-10-12T06:37:42.972Z,8.43
2018-10-12T06:40:13.604Z,6.37
2018-10-12T06:42:44.434Z,7.07
2018-10-12T06:45:15.176Z,10.17
2018-10-12T06:47:45.805Z,8.20
2018-10-12T06:50:16.400Z,6.27
2018-10-12T06:52:47.079Z,8.50
2018-10-12T06:55:17.688Z,7.53
2018-10-12T06:57:48.452Z,8.23
2018-10-12T07:00:19.026Z,6.17
2018-10-12T07:02:49.668Z,6.63
2018-10-12T07:05:20.276Z,7.33
2018-10-12T07:07:50.933Z,8.20
2018-10-12T07:10:21.523Z,6.73
2018-10-12T07:12:52.237Z,9.63
2018-10-12T07:15:22.847Z,6.97
2018-10-12T07:17:53.496Z,5.57
2018-10-12T07:20:24.133Z,6.53
2018-10-12T07:22:54.731Z,7.17
2018-10-12T07:25:25.286Z,8.93
2018-10-12T07:27:55.944Z,6.50
2018-10-12T07:30:26.503Z,8.37
2018-10-12T07:32:57.109Z,7.40
2018-10-12T07:35:27.688Z,5.70
2018-10-12T07:37:58.285Z,6.83
2018-10-12T07:40:28.848Z,7.27
2018-10-12T07:42:59.512Z,6.17
2018-10-12T07:45:30.057Z,10.70
2018-10-12T07:48:00.855Z,6.83
2018-10-12T07:50:31.457Z,7.30
2018-10-12T07:53:02.090Z,5.57
2018-10-12T07:55:32.757Z,6.50
2018-10-12T07:58:03.333Z,5.47
2018-10-12T08:00:34.078Z,8.17
2018-10-12T08:03:04.617Z,4.17
2018-10-12T08:05:35.153Z,7.10
2018-10-12T08:08:05.766Z,6.43
2018-10-12T08:10:36.392Z,4.07
2018-10-12T08:13:07.008Z,6.07
2018-10-12T08:15:37.599Z,6.30
2018-10-12T08:18:08.395Z,7.83
2018-10-12T08:20:38.878Z,5.50
2018-10-12T08:23:09.489Z,5.70
2018-10-12T08:25:40.123Z,7.23
2018-10-12T08:28:10.692Z,6.77
2018-10-12T08:30:41.270Z,5.47
2018-10-12T08:33:11.988Z,6.10
2018-10-12T08:35:42.513Z,5.80
2018-10-12T08:38:13.165Z,5.13
2018-10-12T08:40:43.704Z,5.27
2018-10-12T08:43:14.413Z,4.63
2018-10-12T08:45:44.995Z,4.37
2018-10-12T08:48:15.560Z,3.97
2018-10-12T08:50:46.209Z,5.93
2018-10-12T08:53:16.880Z,4.43
2018-10-12T08:55:47.509Z,4.08
2018-10-12T08:58:18.113Z,6.47
2018-10-12T09:00:48.813Z,4.17
2018-10-12T09:03:19.433Z,4.70
2018-10-12T09:05:49.957Z,4.83
2018-10-12T09:08:20.551Z,3.62
2018-10-12T09:10:51.107Z,3.20
2018-10-12T09:13:21.652Z,5.33
2018-10-12T09:15:52.284Z,3.43
2018-10-12T09:18:22.990Z,7.20
2018-10-12T09:20:53.647Z,4.33
2018-10-12T09:23:25.454Z,3.24
2018-10-12T09:25:55.768Z,3.08
2018-10-12T09:28:26.453Z,4.05
2018-10-12T09:30:56.999Z,3.33
2018-10-12T09:33:27.603Z,9.20
2018-10-12T09:35:58.133Z,4.85
2018-10-12T09:38:28.759Z,4.00
2018-10-12T09:40:59.259Z,2.72
2018-10-12T09:43:29.911Z,4.33
2018-10-12T09:46:00.458Z,5.97
2018-10-12T09:48:31.123Z,6.70
2018-10-12T09:51:01.679Z,4.60
2018-10-12T09:53:32.349Z,3.20
2018-10-12T09:56:02.979Z,2.58
2018-10-12T09:58:33.656Z,5.57
2018-10-12T10:01:09.156Z,3.55
2018-10-12T10:03:44.817Z,3.62
2018-10-12T10:06:15.470Z,5.08
2018-10-12T10:08:46.218Z,3.08
2018-10-12T10:11:16.759Z,3.47
2018-10-12T10:13:47.521Z,5.03
2018-10-12T10:16:18.072Z,2.55
2018-10-12T10:18:48.621Z,3.95
2018-10-12T10:21:19.864Z,3.27
2018-10-12T10:23:50.472Z,2.12
2018-10-12T10:26:21.013Z,5.75
2018-10-12T10:28:51.744Z,3.10
2018-10-12T10:31:22.357Z,3.42
2018-10-12T10:33:53.045Z,4.33
2018-10-12T10:36:23.605Z,2.55
2018-10-12T10:38:54.447Z,3.77
2018-10-12T10:41:25.085Z,2.55
2018-10-12T10:43:55.822Z,3.02
2018-10-12T10:46:26.558Z,3.30
2018-10-12T10:48:57.128Z,2.70
2018-10-12T10:51:27.656Z,3.10
2018-10-12T10:53:58.210Z,4.28
2018-10-12T10:56:28.864Z,3.40
2018-10-12T10:58:59.607Z,4.40
2018-10-12T11:01:30.135Z,2.77
2018-10-12T11:04:00.747Z,4.90
2018-10-12T11:06:31.288Z,3.10
2018-10-12T11:09:01.951Z,2.55
2018-10-12T11:11:32.445Z,3.17
2018-10-12T11:14:02.884Z,3.22
2018-10-12T11:16:33.457Z,3.20
2018-10-12T11:19:04.432Z,2.90
2018-10-12T11:21:35.059Z,2.58
2018-10-12T11:24:05.712Z,2.00
2018-10-12T11:26:36.509Z,1.90
2018-10-12T11:29:07.200Z,1.95
2018-10-12T11:31:37.764Z,2.50
2018-10-12T11:34:08.620Z,2.33
2018-10-12T11:36:39.285Z,3.62
2018-10-12T11:39:14.332Z,5.17
2018-10-12T11:41:44.996Z,4.33
2018-10-12T11:44:15.592Z,4.00
2018-10-12T11:47:12.691Z,4.08
2018-10-12T11:49:44.488Z,2.30
2018-10-12T11:52:15.095Z,5.75
2018-10-12T11:54:45.765Z,5.28
2018-10-12T11:57:17.592Z,2.92
2018-10-12T11:59:49.231Z,3.00
2018-10-12T12:02:29.221Z,5.20
2018-10-12T12:05:12.072Z,2.65
2018-10-12T12:07:43.190Z,3.67
2018-10-12T12:10:13.928Z,4.45
2018-10-12T12:12:44.598Z,3.62
2018-10-12T12:15:16.324Z,3.45
2018-10-12T12:17:46.983Z,2.50
2018-10-12T12:20:17.612Z,4.10
2018-10-12T12:22:48.148Z,3.52
2018-10-12T12:25:18.786Z,3.08
2018-10-12T12:27:49.475Z,3.05
2018-10-12T12:30:20.173Z,7.58
2018-10-12T12:32:52.500Z,3.00
2018-10-12T12:35:24.248Z,3.00
2018-10-12T12:37:55.606Z,3.92
2018-10-12T12:40:26.802Z,3.83
2018-10-12T12:42:57.499Z,3.42
2018-10-12T12:45:28.200Z,2.92
2018-10-12T12:47:58.907Z,4.20
2018-10-12T12:50:29.490Z,3.85
2018-10-12T12:53:00.196Z,2.67
2018-10-12T12:55:30.889Z,3.00
2018-10-12T12:58:01.555Z,3.05
2018-10-12T13:00:32.372Z,2.60
2018-10-12T13:03:03.027Z,1.67
2018-10-12T13:05:33.636Z,2.67
2018-10-12T13:08:04.167Z,3.62
2018-10-12T13:10:35.702Z,2.25
2018-10-12T13:13:06.578Z,3.95
2018-10-12T13:15:37.374Z,3.85
2018-10-12T13:18:08.154Z,2.50
2018-10-12T13:20:38.994Z,3.08
2018-10-12T13:23:09.588Z,2.22
2018-10-12T13:25:40.451Z,3.70
2018-10-12T13:58:37.708Z,4.08
2018-10-12T14:01:08.409Z,3.58
2018-10-12T14:03:39.346Z,2.73
2018-10-12T14:06:10.293Z,3.42
2018-10-12T14:08:41.219Z,3.40
2018-10-12T14:11:12.159Z,2.58
2018-10-12T14:13:42.886Z,2.10
2018-10-12T14:16:14.084Z,2.05
2018-10-12T14:18:45.225Z,3.15
2018-10-12T14:21:16.015Z,2.50
2018-10-12T14:23:47.086Z,2.83
2018-10-12T14:26:17.988Z,3.05
2018-10-12T14:28:49.040Z,4.35
2018-10-12T14:31:19.915Z,2.35
2018-10-12T14:33:50.859Z,2.72
2018-10-12T14:36:21.852Z,3.10
2018-10-12T14:38:52.925Z,2.50
2018-10-12T14:41:23.896Z,4.00
2018-10-12T14:43:55.019Z,5.33
2018-10-12T14:46:26.137Z,3.42
2018-10-12T14:48:57.209Z,4.50
2018-10-12T14:51:28.159Z,2.33
2018-10-12T14:54:00.137Z,3.37
2018-10-12T14:56:30.628Z,2.05
2018-10-12T14:59:01.206Z,3.67
2018-10-12T15:01:31.656Z,4.15
2018-10-12T15:04:02.186Z,2.25
2018-10-12T15:06:32.673Z,2.55
2018-10-12T15:09:03.253Z,2.55
2018-10-12T15:11:33.762Z,2.75
2018-10-12T15:14:04.144Z,5.42
2018-10-12T15:16:34.606Z,2.62
2018-10-12T15:19:05.186Z,2.35
2018-10-12T15:21:35.654Z,3.27
2018-10-12T15:24:06.265Z,2.80
2018-10-12T15:26:36.778Z,3.80
2018-10-12T15:29:07.279Z,3.17
2018-10-12T15:31:37.709Z,2.15
2018-10-12T15:34:08.231Z,4.03
2018-10-12T15:36:38.737Z,2.52
2018-10-12T15:39:09.405Z,3.05
2018-10-12T15:41:39.948Z,3.25
2018-10-12T15:44:10.594Z,2.55
2018-10-12T15:46:40.990Z,3.35
2018-10-12T15:49:11.555Z,7.40
2018-10-12T15:51:44.954Z,3.35
2018-10-12T15:54:15.534Z,2.85
2018-10-12T15:56:46.613Z,5.60
2018-10-12T15:59:17.575Z,3.45
2018-10-12T16:01:48.652Z,3.40
2018-10-12T16:04:19.398Z,5.87
2018-10-12T16:06:49.974Z,2.55
2018-10-12T16:09:20.485Z,7.95
2018-10-12T16:11:51.184Z,5.12
2018-10-12T16:14:21.884Z,6.17
2018-10-12T16:16:52.317Z,4.05
2018-10-12T16:19:22.784Z,2.77
2018-10-12T16:21:53.247Z,3.08
2018-10-12T16:24:23.742Z,4.83
2018-10-12T16:26:54.127Z,3.37
2018-10-12T16:29:24.697Z,4.35
2018-10-12T16:31:55.136Z,4.35
2018-10-12T16:34:25.618Z,3.35
2018-10-12T16:36:56.087Z,6.20
2018-10-12T16:39:26.669Z,4.08
2018-10-12T16:41:57.092Z,3.05
2018-10-12T16:44:27.591Z,4.75
2018-10-12T16:46:58.049Z,7.17
2018-10-12T16:49:28.592Z,5.33
2018-10-12T16:51:59.028Z,5.55
2018-10-12T16:54:29.508Z,3.05
2018-10-12T16:57:00.020Z,3.37
2018-10-12T16:59:30.668Z,5.22
2018-10-12T17:02:01.224Z,3.37
2018-10-12T17:04:31.680Z,6.62
2018-10-12T17:07:02.241Z,3.42
2018-10-12T17:09:32.699Z,3.42
2018-10-12T17:15:03.047Z,4.72
2018-10-12T17:17:33.488Z,2.83
2018-10-12T17:20:04.096Z,3.65
2018-10-12T17:22:34.636Z,4.05
2018-10-12T17:25:05.265Z,4.87
2018-10-12T17:27:35.807Z,9.20
2018-10-12T17:30:06.793Z,5.97
2018-10-12T17:32:37.489Z,5.92
2018-10-12T17:35:08.217Z,6.30
2018-10-12T17:37:38.692Z,3.98
2018-10-12T17:40:10.013Z,2.10
2018-10-12T17:42:40.598Z,2.65
2018-10-12T17:45:11.691Z,4.50
2018-10-12T17:47:42.101Z,4.03
2018-10-12T17:50:12.986Z,4.10
2018-10-12T17:52:43.463Z,4.08
2018-10-12T17:55:13.995Z,3.60
2018-10-12T17:57:44.422Z,5.15
2018-10-12T18:00:14.992Z,5.37
2018-10-12T18:02:45.445Z,4.72
2018-10-12T18:05:15.959Z,6.28
2018-10-12T18:07:46.397Z,5.83
2018-10-12T18:10:16.869Z,7.20
2018-10-12T18:12:47.309Z,5.30
2018-10-12T18:15:17.921Z,6.00
2018-10-12T18:17:48.382Z,4.00
2018-10-12T18:20:18.869Z,4.72
2018-10-12T18:22:49.331Z,4.90
2018-10-12T18:25:19.892Z,6.08
2018-10-12T18:27:50.359Z,4.87
2018-10-12T18:30:20.888Z,3.60
2018-10-12T18:32:51.227Z,4.50
2018-10-12T18:35:21.686Z,5.92
2018-10-12T18:37:52.656Z,4.40
2018-10-12T18:40:23.158Z,3.65
2018-10-12T18:42:53.688Z,3.70
2018-10-12T19:18:26.619Z,4.72
2018-10-12T19:20:57.089Z,5.10
2018-10-12T19:23:28.357Z,3.80
2018-10-12T19:25:58.804Z,4.53
2018-10-12T19:28:29.306Z,3.47
2018-10-12T19:30:59.688Z,7.80
2018-10-12T19:33:30.143Z,5.47
2018-10-12T19:36:00.643Z,5.17
2018-10-12T19:38:31.183Z,6.27
2018-10-12T19:41:01.459Z,5.67
2018-10-12T19:43:31.965Z,5.13
2018-10-12T19:46:02.356Z,4.40
2018-10-12T19:48:32.902Z,4.07
2018-10-12T19:51:03.644Z,5.47
2018-10-12T19:53:34.419Z,9.97
2018-10-12T19:56:04.977Z,11.87
2018-10-12T19:58:35.526Z,6.37
2018-10-12T20:01:05.997Z,4.47
2018-10-12T20:03:36.406Z,3.37
2018-10-12T20:06:06.993Z,3.40
2018-10-12T20:08:37.409Z,10.13
2018-10-12T20:11:07.883Z,6.53
2018-10-12T20:13:38.275Z,4.57
2018-10-12T20:16:09.009Z,4.53
2018-10-12T20:18:39.446Z,5.97
2018-10-12T20:21:09.802Z,6.93
2018-10-12T20:23:40.247Z,5.37
2018-10-12T20:26:11.493Z,8.80
2018-10-12T20:28:42.555Z,7.87
2018-10-12T20:31:12.951Z,4.70
2018-10-12T20:33:43.332Z,5.10
2018-10-12T20:36:13.717Z,7.93
2018-10-12T20:38:44.273Z,4.25
2018-10-12T20:41:14.730Z,8.03
2018-10-12T20:43:45.450Z,4.97
2018-10-12T20:46:15.881Z,8.83
2018-10-12T20:48:47.026Z,7.50
2018-10-12T20:51:17.613Z,8.93
2018-10-12T20:53:48.207Z,6.53
2018-10-12T20:56:18.823Z,7.58
2018-10-12T20:58:49.308Z,5.22
2018-10-12T21:01:20.524Z,5.17
2018-10-12T21:03:51.325Z,6.70
2018-10-12T21:06:21.772Z,5.53
2018-10-12T21:08:52.250Z,6.07
2018-10-12T21:11:29.350Z,7.57
2018-10-12T21:13:59.789Z,10.80
2018-10-12T21:16:30.288Z,6.40
2018-10-12T21:19:00.801Z,8.37
2018-10-12T21:21:31.259Z,5.77
2018-10-12T21:24:01.744Z,6.47
2018-10-12T21:26:35.009Z,8.63
2018-10-12T21:29:05.727Z,5.10
2018-10-12T21:31:36.234Z,15.05
2018-10-12T21:34:06.837Z,7.57
2018-10-12T21:36:38.943Z,5.03
2018-10-12T21:39:09.402Z,7.03
2018-10-12T21:41:39.887Z,5.07
2018-10-12T21:44:10.690Z,5.10
2018-10-12T21:46:41.124Z,8.77
2018-10-12T21:49:11.655Z,4.83
2018-10-12T21:51:42.125Z,6.07
2018-10-12T21:54:12.707Z,10.88
2018-10-12T21:56:42.999Z,8.83
2018-10-12T21:59:13.432Z,5.10
2018-10-12T22:01:43.814Z,7.45
2018-10-12T22:04:14.573Z,7.80
2018-10-12T22:06:45.104Z,9.03
2018-10-12T22:09:15.545Z,5.90
2018-10-12T22:11:45.987Z,6.10
2018-10-12T22:14:16.449Z,7.47
2018-10-12T22:16:46.893Z,6.20
2018-10-12T22:19:17.438Z,7.08
2018-10-12T22:21:47.824Z,7.97
2018-10-12T22:24:18.394Z,5.80
2018-10-12T22:26:48.762Z,5.37
2018-10-12T22:29:19.202Z,7.33
2018-10-12T22:31:49.585Z,5.00
2018-10-12T22:34:20.104Z,5.00
2018-10-12T22:36:50.530Z,8.00
2018-10-12T22:39:20.967Z,5.13
2018-10-12T22:41:51.904Z,8.88
2018-10-12T22:44:22.607Z,6.60
2018-10-12T22:46:53.126Z,5.87
2018-10-12T22:49:23.626Z,6.60
2018-10-12T22:51:54.006Z,6.90
2018-10-12T22:54:24.453Z,7.63
2018-10-12T22:56:54.882Z,11.20
2018-10-12T22:59:25.482Z,6.13
2018-10-12T23:01:55.983Z,8.63
2018-10-12T23:04:26.451Z,8.93
2018-10-12T23:06:57.752Z,5.33
2018-10-12T23:09:28.242Z,7.70
2018-10-12T23:11:58.661Z,6.93
2018-10-12T23:14:29.177Z,9.03
2018-10-12T23:16:59.608Z,7.13
2018-10-12T23:19:30.133Z,6.37
2018-10-12T23:22:00.593Z,5.17
2018-10-12T23:24:31.024Z,4.47
2018-10-12T23:27:01.496Z,4.60
2018-10-12T23:29:31.908Z,6.37
2018-10-12T23:32:02.358Z,3.93
2018-10-12T23:34:32.828Z,9.70
2018-10-12T23:37:03.208Z,3.93
2018-10-12T23:39:33.681Z,5.27
2018-10-12T23:42:04.155Z,4.97
2018-10-12T23:44:34.688Z,7.23
2018-10-12T23:47:05.204Z,9.03
2018-10-12T23:49:35.707Z,5.03
2018-10-12T23:52:06.230Z,5.73
2018-10-12T23:54:36.793Z,7.07
2018-10-12T23:57:07.333Z,6.50
2018-10-12T23:59:37.804Z,6.53
